Time;durP1;ratioP1;P1;durP2;ratioP2;P2;SDS_P1;SDS_P2;PMS_P1;PMS_P2;Temp;Humidity;BMP_temperature;BMP_pressure;BME280_temperature;BME280_humidity;BME280_pressure;Samples;Min_cycle;Max_cycle;Signal;HPM_P1;HPM_P2
2022/10/11 00:02:16;;;;;;;10.73;2.63;;;;;;;;;;5028881;28;20075;-80
2022/10/11 00:04:42;;;;;;;9.70;2.50;;;;;;;;;;5014497;28;20441;-80
2022/10/11 00:07:08;;;;;;;8.88;2.33;;;;;;;;;;5023383;28;20132;-80
2022/10/11 00:09:34;;;;;;;5.75;1.80;;;;;;;;;;5029681;28;20033;-80
2022/10/11 00:12:01;;;;;;;10.05;2.33;;;;;;;;;;5029081;28;20065;-80
2022/10/11 00:14:27;;;;;;;9.50;2.00;;;;;;;;;;5013318;28;20034;-79
2022/10/11 00:16:53;;;;;;;9.10;1.73;;;;;;;;;;5016888;28;20041;-80
2022/10/11 00:19:19;;;;;;;7.22;2.42;;;;;;;;;;5024991;28;20040;-80
2022/10/11 00:21:46;;;;;;;9.07;2.28;;;;;;;;;;5023937;28;20496;-79
2022/10/11 00:24:12;;;;;;;7.15;1.90;;;;;;;;;;5029425;28;20770;-79
2022/10/11 00:26:38;;;;;;;4.82;1.95;;;;;;;;;;5025759;28;20037;-79
2022/10/11 00:29:04;;;;;;;6.78;1.38;;;;;;;;;;5019559;28;20073;-79
2022/10/11 00:31:30;;;;;;;4.60;1.20;;;;;;;;;;5021078;28;20069;-79
2022/10/11 00:33:56;;;;;;;6.25;1.40;;;;;;;;;;5019849;28;20038;-79
2022/10/11 00:36:22;;;;;;;7.22;1.38;;;;;;;;;;5024833;28;20035;-79
2022/10/11 00:38:48;;;;;;;4.50;1.17;;;;;;;;;;5024802;28;20056;-80
2022/10/11 00:41:15;;;;;;;6.90;1.42;;;;;;;;;;5012293;28;20034;-79
2022/10/11 00:43:41;;;;;;;4.50;1.42;;;;;;;;;;5017373;28;20037;-79
2022/10/11 00:46:13;;;;;;;4.35;1.20;;;;;;;;;;5027947;28;20087;-79
2022/10/11 00:48:39;;;;;;;6.43;1.40;;;;;;;;;;5022526;28;20034;-79
2022/10/11 00:51:09;;;;;;;7.03;1.30;;;;;;;;;;5028977;28;20830;-79
2022/10/11 00:53:35;;;;;;;6.93;1.20;;;;;;;;;;5010737;28;20030;-79
2022/10/11 00:56:16;;;;;;;3.92;1.30;;;;;;;;;;5020628;28;20042;-79
2022/10/11 00:58:43;;;;;;;5.15;1.20;;;;;;;;;;5016344;28;20627;-79
2022/10/11 01:01:09;;;;;;;4.35;1.17;;;;;;;;;;5028341;28;20076;-79
2022/10/11 01:03:35;;;;;;;6.53;1.60;;;;;;;;;;5020109;28;20373;-80
2022/10/11 01:06:02;;;;;;;5.90;1.20;;;;;;;;;;5028559;28;20120;-79
2022/10/11 01:08:28;;;;;;;6.28;1.33;;;;;;;;;;5028759;28;20514;-80
2022/10/11 01:10:55;;;;;;;4.18;1.40;;;;;;;;;;5022060;28;20120;-79
2022/10/11 01:13:21;;;;;;;4.13;1.42;;;;;;;;;;5027697;28;20041;-79
2022/10/11 01:15:53;;;;;;;4.03;1.30;;;;;;;;;;5023512;28;20030;-79
2022/10/11 01:18:25;;;;;;;8.23;1.60;;;;;;;;;;5020433;28;20030;-79
2022/10/11 01:20:54;;;;;;;10.50;1.70;;;;;;;;;;5030791;28;20460;-79
2022/10/11 01:23:39;;;;;;;3.58;1.10;;;;;;;;;;5019709;28;20030;-78
2022/10/11 01:26:11;;;;;;;3.38;1.23;;;;;;;;;;5025475;28;20033;-79
2022/10/11 01:28:46;;;;;;;5.85;1.60;;;;;;;;;;5032159;28;20038;-79
2022/10/11 01:31:27;;;;;;;4.15;1.40;;;;;;;;;;5024473;28;20598;-79
2022/10/11 01:33:55;;;;;;;4.40;1.25;;;;;;;;;;5030600;28;20033;-79
2022/10/11 01:36:41;;;;;;;9.82;1.42;;;;;;;;;;5014763;28;20041;-79
2022/10/11 01:39:07;;;;;;;7.00;1.50;;;;;;;;;;5025147;28;20052;-79
2022/10/11 01:41:38;;;;;;;5.90;1.20;;;;;;;;;;5015875;28;20033;-79
2022/10/11 01:44:05;;;;;;;7.03;1.30;;;;;;;;;;5030058;28;20037;-79
2022/10/11 01:46:31;;;;;;;3.42;1.02;;;;;;;;;;5022910;28;20104;-79
2022/10/11 01:48:58;;;;;;;5.22;1.58;;;;;;;;;;5025400;28;20041;-78
2022/10/11 01:51:26;;;;;;;5.88;1.65;;;;;;;;;;5020011;28;20045;-79
2022/10/11 01:54:08;;;;;;;7.55;1.50;;;;;;;;;;5026530;28;20124;-79
2022/10/11 01:56:51;;;;;;;8.27;1.50;;;;;;;;;;5025809;28;20040;-78
2022/10/11 01:59:20;;;;;;;8.75;1.45;;;;;;;;;;5027782;28;20030;-78
2022/10/11 02:02:05;;;;;;;7.45;1.83;;;;;;;;;;5025293;28;20038;-79
2022/10/11 02:04:44;;;;;;;8.20;2.08;;;;;;;;;;5027925;28;20527;-78
2022/10/11 02:07:16;;;;;;;4.57;1.02;;;;;;;;;;5026638;28;20048;-79
2022/10/11 02:09:49;;;;;;;7.57;1.30;;;;;;;;;;5017953;28;20030;-79
2022/10/11 02:12:15;;;;;;;;;;;;;;;;;;5024276;28;20034;-79
2022/10/11 02:14:43;;;;;;;5.90;1.17;;;;;;;;;;5031431;28;19923;-79
2022/10/11 02:17:14;;;;;;;4.10;1.17;;;;;;;;;;5031758;28;20029;-79
2022/10/11 02:19:45;;;;;;;9.98;1.13;;;;;;;;;;5030607;28;20029;-79
2022/10/11 02:22:15;;;;;;;6.90;1.43;;;;;;;;;;5020565;28;20069;-79
2022/10/11 02:24:42;;;;;;;6.18;1.30;;;;;;;;;;5022641;28;20041;-79
2022/10/11 02:27:09;;;;;;;5.38;1.70;;;;;;;;;;5012137;28;20038;-79
2022/10/11 02:29:37;;;;;;;4.65;1.55;;;;;;;;;;5027623;28;20368;-79
2022/10/11 02:32:04;;;;;;;8.98;1.65;;;;;;;;;;5030754;28;20045;-78
2022/10/11 02:34:33;;;;;;;8.50;1.77;;;;;;;;;;5030047;28;20029;-79
2022/10/11 02:37:05;;;;;;;5.88;1.80;;;;;;;;;;5027022;28;20042;-79
2022/10/11 02:39:34;;;;;;;7.43;1.95;;;;;;;;;;5030277;28;20055;-78
2022/10/11 02:42:02;;;;;;;8.52;1.73;;;;;;;;;;5019512;28;20066;-78
2022/10/11 02:44:31;;;;;;;6.22;1.33;;;;;;;;;;5017019;28;20064;-78
2022/10/11 02:46:57;;;;;;;8.45;1.50;;;;;;;;;;5023086;28;20052;-79
2022/10/11 02:49:23;;;;;;;7.78;1.60;;;;;;;;;;5027435;28;20068;-78
2022/10/11 02:51:49;;;;;;;9.95;1.35;;;;;;;;;;5019555;28;20076;-79
2022/10/11 02:54:16;;;;;;;6.85;1.60;;;;;;;;;;5016531;28;20065;-78
2022/10/11 02:56:42;;;;;;;10.05;1.85;;;;;;;;;;5010882;28;20033;-78
2022/10/11 02:59:08;;;;;;;6.72;1.55;;;;;;;;;;5020088;28;20030;-78
2022/10/11 03:01:34;;;;;;;6.13;1.90;;;;;;;;;;5012258;28;20469;-79
2022/10/11 03:04:00;;;;;;;6.75;1.42;;;;;;;;;;5029136;28;20075;-78
2022/10/11 03:06:26;;;;;;;7.60;1.40;;;;;;;;;;5020232;28;20807;-79
2022/10/11 03:08:52;;;;;;;10.68;1.63;;;;;;;;;;5026047;28;20033;-78
2022/10/11 03:11:18;;;;;;;4.80;2.03;;;;;;;;;;5026454;28;20522;-79
2022/10/11 03:13:44;;;;;;;11.35;1.52;;;;;;;;;;5020278;28;20034;-78
2022/10/11 03:16:10;;;;;;;6.22;2.08;;;;;;;;;;5019529;28;20054;-78
2022/10/11 03:18:36;;;;;;;8.32;1.60;;;;;;;;;;5022283;28;20787;-78
2022/10/11 03:21:02;;;;;;;9.57;1.52;;;;;;;;;;5024750;28;20071;-79
2022/10/11 03:23:28;;;;;;;8.77;1.27;;;;;;;;;;5030026;28;20025;-78
2022/10/11 03:25:54;;;;;;;4.95;1.40;;;;;;;;;;5028175;28;20069;-78
2022/10/11 03:28:20;;;;;;;9.05;1.88;;;;;;;;;;5029784;28;20441;-79
2022/10/11 03:30:47;;;;;;;8.07;1.33;;;;;;;;;;5029038;28;20120;-78
2022/10/11 03:33:13;;;;;;;9.15;1.30;;;;;;;;;;5030051;28;20029;-78
2022/10/11 03:35:39;;;;;;;6.80;1.27;;;;;;;;;;5029075;28;20068;-78
2022/10/11 03:38:05;;;;;;;7.75;1.45;;;;;;;;;;5024595;28;20631;-79
2022/10/11 03:40:31;;;;;;;4.28;1.10;;;;;;;;;;5029654;28;20033;-79
2022/10/11 03:42:57;;;;;;;7.80;1.80;;;;;;;;;;5018984;28;20361;-78
2022/10/11 03:45:23;;;;;;;7.38;1.60;;;;;;;;;;5025346;28;20112;-78
2022/10/11 03:47:49;;;;;;;4.10;1.33;;;;;;;;;;5027155;28;20413;-79
2022/10/11 03:50:15;;;;;;;4.20;1.88;;;;;;;;;;5020676;28;20068;-79
2022/10/11 03:52:42;;;;;;;8.50;1.70;;;;;;;;;;5028953;28;20033;-78
2022/10/11 03:55:08;;;;;;;7.53;1.88;;;;;;;;;;5028731;28;20119;-78
2022/10/11 03:57:34;;;;;;;7.90;1.50;;;;;;;;;;5020352;28;20033;-78
2022/10/11 04:00:00;;;;;;;4.68;1.65;;;;;;;;;;5017558;28;20045;-78
2022/10/11 04:02:26;;;;;;;6.32;1.70;;;;;;;;;;5020195;28;20385;-78
2022/10/11 04:04:52;;;;;;;7.40;1.85;;;;;;;;;;5023709;28;20038;-78
2022/10/11 04:07:18;;;;;;;6.45;1.92;;;;;;;;;;5028837;28;20037;-78
2022/10/11 04:09:44;;;;;;;5.55;1.35;;;;;;;;;;5025654;28;20029;-78
2022/10/11 04:12:11;;;;;;;5.78;1.33;;;;;;;;;;5014818;28;20109;-78
2022/10/11 04:14:37;;;;;;;6.18;1.77;;;;;;;;;;5015418;28;20030;-78
2022/10/11 04:17:03;;;;;;;5.78;1.80;;;;;;;;;;5010698;28;20089;-78
2022/10/11 04:19:29;;;;;;;10.80;2.25;;;;;;;;;;5020181;28;20087;-78
2022/10/11 04:21:55;;;;;;;6.78;2.38;;;;;;;;;;5024541;28;20034;-78
2022/10/11 04:24:21;;;;;;;8.68;2.20;;;;;;;;;;5011719;28;20145;-78
2022/10/11 04:26:47;;;;;;;12.35;2.67;;;;;;;;;;5025170;28;20871;-78
2022/10/11 04:29:13;;;;;;;8.02;1.80;;;;;;;;;;5028535;28;20045;-78
2022/10/11 04:31:39;;;;;;;6.95;1.80;;;;;;;;;;5018375;28;20038;-78
2022/10/11 04:34:05;;;;;;;7.10;2.20;;;;;;;;;;5026579;28;20029;-78
2022/10/11 04:36:32;;;;;;;9.40;2.20;;;;;;;;;;5029591;28;20447;-78
2022/10/11 04:39:00;;;;;;;8.38;2.00;;;;;;;;;;5020999;28;20738;-78
2022/10/11 04:41:28;;;;;;;9.10;2.33;;;;;;;;;;5012043;28;20030;-78
2022/10/11 04:43:53;;;;;;;11.50;2.92;;;;;;;;;;5025064;28;20037;-78
2022/10/11 04:46:20;;;;;;;8.32;2.83;;;;;;;;;;5018646;28;20038;-78
2022/10/11 04:48:46;;;;;;;6.05;2.85;;;;;;;;;;5022721;28;20041;-78
2022/10/11 04:51:12;;;;;;;8.13;3.00;;;;;;;;;;5028907;28;20542;-78
2022/10/11 04:53:38;;;;;;;7.18;2.45;;;;;;;;;;5021451;28;20116;-78
2022/10/11 04:56:06;;;;;;;8.68;3.13;;;;;;;;;;5002241;28;20647;-78
2022/10/11 04:58:33;;;;;;;10.90;2.67;;;;;;;;;;5012609;28;20022;-78
2022/10/11 05:00:59;;;;;;;7.95;3.33;;;;;;;;;;5003097;28;20042;-78
2022/10/11 05:03:25;;;;;;;14.70;4.28;;;;;;;;;;4995279;28;20026;-78
2022/10/11 05:05:52;;;;;;;12.93;3.88;;;;;;;;;;5008328;28;20881;-78
2022/10/11 05:08:18;;;;;;;13.52;4.57;;;;;;;;;;4994080;28;20061;-78
2022/10/11 05:10:54;;;;;;;9.85;3.72;;;;;;;;;;5006031;28;20048;-78
2022/10/11 05:13:20;;;;;;;10.43;4.80;;;;;;;;;;5011329;28;20124;-77
2022/10/11 05:15:46;;;;;;;12.68;4.38;;;;;;;;;;5011480;28;20030;-78
2022/10/11 05:18:12;;;;;;;16.98;5.38;;;;;;;;;;5003521;28;20038;-79
2022/10/11 05:20:38;;;;;;;11.57;4.28;;;;;;;;;;5020593;28;20075;-78
2022/10/11 05:23:04;;;;;;;12.75;4.53;;;;;;;;;;5014094;28;20026;-78
2022/10/11 05:25:30;;;;;;;11.77;4.15;;;;;;;;;;5002234;28;20037;-78
2022/10/11 05:27:56;;;;;;;10.35;4.53;;;;;;;;;;5008158;28;20041;-78
2022/10/11 05:30:22;;;;;;;12.60;3.60;;;;;;;;;;5010392;28;20400;-78
2022/10/11 05:32:48;;;;;;;7.50;3.70;;;;;;;;;;5005198;28;20026;-77
2022/10/11 05:35:14;;;;;;;9.48;3.20;;;;;;;;;;5009790;28;20039;-78
2022/10/11 05:37:40;;;;;;;9.32;3.60;;;;;;;;;;5011923;28;20481;-77
2022/10/11 05:40:07;;;;;;;12.20;3.92;;;;;;;;;;4988665;28;20035;-77
2022/10/11 05:42:33;;;;;;;9.63;2.70;;;;;;;;;;5003715;28;20073;-78
2022/10/11 05:44:59;;;;;;;13.88;4.03;;;;;;;;;;5001836;28;20520;-77
2022/10/11 05:47:25;;;;;;;15.30;4.18;;;;;;;;;;4997746;28;20039;-78
2022/10/11 05:49:51;;;;;;;12.55;3.95;;;;;;;;;;5007846;28;20354;-77
2022/10/11 05:52:20;;;;;;;9.73;3.58;;;;;;;;;;4995217;28;20038;-78
2022/10/11 05:54:46;;;;;;;11.02;3.20;;;;;;;;;;5008413;28;20128;-77
2022/10/11 05:57:12;;;;;;;9.75;3.55;;;;;;;;;;5027445;28;20044;-77
2022/10/11 05:59:38;;;;;;;9.30;3.97;;;;;;;;;;5029668;28;20026;-77
2022/10/11 06:02:04;;;;;;;8.00;3.60;;;;;;;;;;5027356;28;20557;-77
2022/10/11 06:04:30;;;;;;;9.43;3.78;;;;;;;;;;5031861;28;20488;-77
2022/10/11 06:06:56;;;;;;;11.45;3.53;;;;;;;;;;5028199;28;20061;-78
2022/10/11 06:09:22;;;;;;;10.13;3.22;;;;;;;;;;5025891;28;20037;-77
2022/10/11 06:11:48;;;;;;;12.02;3.15;;;;;;;;;;5022017;28;20034;-78
2022/10/11 06:14:14;;;;;;;9.05;2.97;;;;;;;;;;5023451;28;20041;-77
2022/10/11 06:16:40;;;;;;;11.45;3.20;;;;;;;;;;5015055;28;20034;-77
2022/10/11 06:19:06;;;;;;;11.00;3.05;;;;;;;;;;5021872;28;20369;-77
2022/10/11 06:21:32;;;;;;;14.85;3.15;;;;;;;;;;5024389;28;20416;-78
2022/10/11 06:24:00;;;;;;;15.65;4.05;;;;;;;;;;5026331;28;20037;-77
2022/10/11 06:26:26;;;;;;;10.05;3.28;;;;;;;;;;5025904;28;20076;-77
2022/10/11 06:28:52;;;;;;;11.15;3.28;;;;;;;;;;5026125;28;20034;-77
2022/10/11 06:31:18;;;;;;;16.70;2.60;;;;;;;;;;5029637;28;20091;-77
2022/10/11 06:33:44;;;;;;;11.75;3.33;;;;;;;;;;5024722;28;20033;-77
2022/10/11 06:36:11;;;;;;;13.65;4.95;;;;;;;;;;5020445;28;20065;-78
2022/10/11 06:38:37;;;;;;;11.73;3.25;;;;;;;;;;5026083;28;20037;-77
2022/10/11 06:41:10;;;;;;;14.15;3.80;;;;;;;;;;5027613;28;20075;-77
2022/10/11 06:43:36;;;;;;;12.82;4.28;;;;;;;;;;5027869;28;20029;-77
2022/10/11 06:46:02;;;;;;;12.00;4.13;;;;;;;;;;5022106;28;20479;-77
2022/10/11 06:48:30;;;;;;;12.07;3.80;;;;;;;;;;5031081;28;20025;-77
2022/10/11 06:50:57;;;;;;;14.73;4.68;;;;;;;;;;5023036;28;20724;-77
2022/10/11 06:53:23;;;;;;;21.40;4.95;;;;;;;;;;5022295;28;20038;-77
2022/10/11 06:55:49;;;;;;;14.05;4.60;;;;;;;;;;5029499;28;20361;-77
2022/10/11 06:58:15;;;;;;;12.40;4.72;;;;;;;;;;5024037;28;20029;-77
2022/10/11 07:00:41;;;;;;;9.23;4.15;;;;;;;;;;5027126;28;20480;-77
2022/10/11 07:03:07;;;;;;;11.98;4.10;;;;;;;;;;5024687;28;20068;-77
2022/10/11 07:05:34;;;;;;;19.52;4.50;;;;;;;;;;5026291;28;20041;-77
2022/10/11 07:08:00;;;;;;;13.18;3.30;;;;;;;;;;5027193;28;20037;-77
2022/10/11 07:10:26;;;;;;;4.65;1.60;;;;;;;;;;5020581;28;20084;-77
2022/10/11 07:12:52;;;;;;;5.45;1.58;;;;;;;;;;5022333;28;20365;-77
2022/10/11 07:15:18;;;;;;;8.82;3.22;;;;;;;;;;5029729;28;20116;-77
2022/10/11 07:17:44;;;;;;;12.18;3.55;;;;;;;;;;5030338;28;20563;-77
2022/10/11 07:20:11;;;;;;;14.30;3.42;;;;;;;;;;5022672;28;20072;-77
2022/10/11 07:22:37;;;;;;;23.08;5.05;;;;;;;;;;5025783;28;20245;-77
2022/10/11 07:25:03;;;;;;;19.30;4.70;;;;;;;;;;5021554;28;20114;-77
2022/10/11 07:27:29;;;;;;;15.57;4.47;;;;;;;;;;5026433;28;20021;-77
2022/10/11 07:29:55;;;;;;;17.60;4.57;;;;;;;;;;5019169;28;20087;-77
2022/10/11 07:32:21;;;;;;;9.23;3.67;;;;;;;;;;5026956;28;20493;-77
2022/10/11 07:34:47;;;;;;;9.75;3.50;;;;;;;;;;5017946;28;20045;-77
2022/10/11 07:37:28;;;;;;;9.68;3.42;;;;;;;;;;5003178;28;20116;-77
2022/10/11 07:39:54;;;;;;;18.65;4.35;;;;;;;;;;5023768;28;20515;-77
2022/10/11 07:42:21;;;;;;;11.05;3.15;;;;;;;;;;5029917;28;20029;-77
2022/10/11 07:44:47;;;;;;;9.30;2.83;;;;;;;;;;5028767;28;20037;-77
2022/10/11 07:47:13;;;;;;;13.80;3.15;;;;;;;;;;5022437;28;20042;-77
2022/10/11 07:49:39;;;;;;;12.00;3.08;;;;;;;;;;5024442;28;20036;-77
2022/10/11 07:52:05;;;;;;;7.95;2.03;;;;;;;;;;5019095;28;20045;-77
2022/10/11 07:54:32;;;;;;;7.05;1.83;;;;;;;;;;5026248;28;20080;-77
2022/10/11 07:56:58;;;;;;;14.05;3.42;;;;;;;;;;5018910;28;20033;-77
2022/10/11 07:59:24;;;;;;;12.48;3.45;;;;;;;;;;5028363;28;20499;-77
2022/10/11 08:01:50;;;;;;;14.30;3.72;;;;;;;;;;5024889;28;20026;-77
2022/10/11 08:04:16;;;;;;;14.18;3.95;;;;;;;;;;5024390;28;20034;-77
2022/10/11 08:06:42;;;;;;;20.85;4.80;;;;;;;;;;5017892;28;20042;-77
2022/10/11 08:09:09;;;;;;;13.90;3.58;;;;;;;;;;5026216;28;20041;-77
2022/10/11 08:11:36;;;;;;;18.48;4.30;;;;;;;;;;5021804;28;20541;-77
2022/10/11 08:14:07;;;;;;;16.73;3.95;;;;;;;;;;5023456;28;20086;-77
2022/10/11 08:16:33;;;;;;;14.77;3.25;;;;;;;;;;5021010;28;20033;-78
2022/10/11 08:19:00;;;;;;;6.72;1.70;;;;;;;;;;5020376;28;20033;-77
2022/10/11 08:21:26;;;;;;;8.65;1.73;;;;;;;;;;5020852;28;20380;-77
2022/10/11 08:23:52;;;;;;;12.52;2.95;;;;;;;;;;5024513;28;20045;-77
2022/10/11 08:26:18;;;;;;;9.13;2.45;;;;;;;;;;5027196;28;20041;-77
2022/10/11 08:28:44;;;;;;;13.15;3.28;;;;;;;;;;5024031;28;20526;-77
2022/10/11 08:31:14;;;;;;;11.23;2.58;;;;;;;;;;5023956;28;20084;-78
2022/10/11 08:33:40;;;;;;;9.73;2.25;;;;;;;;;;5020306;28;20264;-77
2022/10/11 08:36:07;;;;;;;18.25;2.85;;;;;;;;;;5028694;28;20029;-78
2022/10/11 08:38:33;;;;;;;9.25;1.92;;;;;;;;;;5028554;28;20025;-77
2022/10/11 08:41:01;;;;;;;13.52;3.15;;;;;;;;;;5015806;28;20033;-77
2022/10/11 08:43:42;;;;;;;11.35;2.67;;;;;;;;;;5023125;28;20754;-78
2022/10/11 08:46:09;;;;;;;11.45;3.40;;;;;;;;;;5021139;28;20033;-78
2022/10/11 08:48:37;;;;;;;7.05;2.45;;;;;;;;;;5027640;28;20384;-78
2022/10/11 08:51:09;;;;;;;8.73;2.22;;;;;;;;;;5019691;28;20084;-78
2022/10/11 08:53:46;;;;;;;6.90;2.22;;;;;;;;;;5026041;28;20045;-78
2022/10/11 08:56:13;;;;;;;12.02;2.17;;;;;;;;;;5028261;28;20385;-78
2022/10/11 08:58:46;;;;;;;12.82;2.47;;;;;;;;;;5027857;28;20051;-78
2022/10/11 09:01:16;;;;;;;12.02;2.58;;;;;;;;;;5020790;28;20537;-78
2022/10/11 09:03:43;;;;;;;11.25;2.85;;;;;;;;;;5019181;28;20034;-78
2022/10/11 09:06:12;;;;;;;11.77;3.15;;;;;;;;;;5021140;28;20065;-78
2022/10/11 09:08:38;;;;;;;9.05;3.05;;;;;;;;;;5017651;28;20030;-78
2022/10/11 09:11:19;;;;;;;9.23;2.53;;;;;;;;;;5027925;28;20034;-78
2022/10/11 09:13:51;;;;;;;17.20;3.03;;;;;;;;;;5021413;28;20417;-78
2022/10/11 09:16:33;;;;;;;10.52;2.50;;;;;;;;;;5020557;28;20037;-78
2022/10/11 09:19:17;;;;;;;9.75;1.90;;;;;;;;;;5025811;28;20067;-78
2022/10/11 09:21:46;;;;;;;6.22;1.92;;;;;;;;;;5014796;28;20026;-78
2022/10/11 09:24:31;;;;;;;8.00;1.95;;;;;;;;;;5021809;28;20381;-78
2022/10/11 09:26:59;;;;;;;6.43;2.33;;;;;;;;;;5023456;28;20694;-78
2022/10/11 09:29:55;;;;;;;8.85;2.55;;;;;;;;;;5015131;28;20044;-78
2022/10/11 09:32:21;;;;;;;10.50;2.17;;;;;;;;;;5005054;28;20038;-78
2022/10/11 09:34:57;;;;;;;9.15;2.38;;;;;;;;;;5029524;28;20033;-78
2022/10/11 09:37:31;;;;;;;8.70;1.92;;;;;;;;;;5011510;28;20025;-78
2022/10/11 09:39:57;;;;;;;8.95;2.00;;;;;;;;;;5027336;28;20069;-79
2022/10/11 09:42:23;;;;;;;9.40;2.15;;;;;;;;;;5031254;28;20072;-78
2022/10/11 09:44:50;;;;;;;6.65;1.98;;;;;;;;;;5028024;28;20099;-78
2022/10/11 09:47:24;;;;;;;10.73;2.00;;;;;;;;;;5014198;28;20460;-78
2022/10/11 09:50:06;;;;;;;8.57;1.63;;;;;;;;;;5025742;28;20061;-78
2022/10/11 09:52:32;;;;;;;;;;;;;;;;;;5019119;28;20042;-79
2022/10/11 09:54:59;;;;;;;6.95;1.83;;;;;;;;;;5013077;28;19975;-78
2022/10/11 09:57:27;;;;;;;11.65;2.10;;;;;;;;;;5006753;28;20034;-79
2022/10/11 10:00:02;;;;;;;8.15;1.80;;;;;;;;;;5007947;28;20433;-79
2022/10/11 10:02:29;;;;;;;11.13;1.48;;;;;;;;;;5004100;28;20030;-79
2022/10/11 10:04:55;;;;;;;11.05;1.95;;;;;;;;;;5016013;28;20040;-79
2022/10/11 10:07:21;;;;;;;10.15;1.75;;;;;;;;;;4998718;28;20038;-79
2022/10/11 10:09:48;;;;;;;9.98;1.92;;;;;;;;;;5005106;28;20038;-78
2022/10/11 10:12:19;;;;;;;9.20;1.67;;;;;;;;;;5011571;28;20397;-79
2022/10/11 10:14:53;;;;;;;9.25;2.05;;;;;;;;;;4999980;28;20032;-78
2022/10/11 10:17:20;;;;;;;6.15;1.80;;;;;;;;;;5000540;28;20033;-79
2022/10/11 10:19:50;;;;;;;6.07;1.58;;;;;;;;;;5006082;28;20096;-78
2022/10/11 10:22:20;;;;;;;7.78;1.65;;;;;;;;;;5004616;28;20088;-78
2022/10/11 10:24:47;;;;;;;14.57;1.88;;;;;;;;;;4995206;28;20045;-78
2022/10/11 10:27:13;;;;;;;12.48;1.90;;;;;;;;;;5001913;28;20030;-78
2022/10/11 10:29:39;;;;;;;7.93;1.98;;;;;;;;;;5006978;28;20032;-79
2022/10/11 10:32:27;;;;;;;4.88;1.20;;;;;;;;;;5011358;28;20081;-78
2022/10/11 10:35:05;;;;;;;9.77;1.52;;;;;;;;;;4993777;28;20034;-78
2022/10/11 10:37:57;;;;;;;4.35;1.27;;;;;;;;;;5007631;28;20810;-78
2022/10/11 10:40:23;;;;;;;;;;;;;;;;;;4989593;28;20042;-79
2022/10/11 10:42:49;;;;;;;7.20;0.93;;;;;;;;;;5001830;28;19914;-78
2022/10/11 10:45:16;;;;;;;3.85;0.90;;;;;;;;;;5009973;28;20382;-78
2022/10/11 10:48:05;;;;;;;5.38;0.70;;;;;;;;;;4997723;28;20470;-79
2022/10/11 10:50:43;;;;;;;2.20;0.80;;;;;;;;;;5008340;28;20034;-78
2022/10/11 10:53:28;;;;;;;2.95;0.90;;;;;;;;;;5009251;28;20033;-78
2022/10/11 10:55:57;;;;;;;2.08;0.73;;;;;;;;;;5003385;28;20117;-78
2022/10/11 10:58:26;;;;;;;5.82;0.90;;;;;;;;;;5007428;28;20123;-79
2022/10/11 11:00:56;;;;;;;4.80;1.00;;;;;;;;;;5002169;28;20533;-78
2022/10/11 11:03:29;;;;;;;3.47;1.25;;;;;;;;;;4996072;28;20054;-78
2022/10/11 11:06:04;;;;;;;6.35;1.15;;;;;;;;;;5007460;28;20026;-78
2022/10/11 11:08:30;;;;;;;3.28;1.02;;;;;;;;;;5005961;28;20835;-78
2022/10/11 11:11:14;;;;;;;6.75;1.10;;;;;;;;;;5010243;28;20034;-78
2022/10/11 11:13:50;;;;;;;3.90;0.90;;;;;;;;;;4994569;28;20041;-78
2022/10/11 11:16:24;;;;;;;5.43;0.93;;;;;;;;;;5002742;28;20033;-78
2022/10/11 11:19:20;;;;;;;3.35;0.90;;;;;;;;;;5000066;28;20030;-78
2022/10/11 11:21:46;;;;;;;3.25;0.98;;;;;;;;;;4998014;28;20030;-78
2022/10/11 11:24:28;;;;;;;3.17;0.70;;;;;;;;;;5001230;28;20400;-78
2022/10/11 11:26:57;;;;;;;2.42;0.68;;;;;;;;;;5004290;28;20366;-78
2022/10/11 11:29:23;;;;;;;6.22;0.93;;;;;;;;;;5005540;28;20038;-78
2022/10/11 11:32:04;;;;;;;6.47;1.20;;;;;;;;;;5005225;28;20080;-79
2022/10/11 11:34:39;;;;;;;4.95;1.20;;;;;;;;;;5001951;28;20034;-78
2022/10/11 11:37:20;;;;;;;3.35;1.05;;;;;;;;;;4993450;28;20034;-78
2022/10/11 11:39:51;;;;;;;5.57;1.33;;;;;;;;;;5006572;28;20389;-78
2022/10/11 11:42:23;;;;;;;5.25;1.20;;;;;;;;;;5006507;28;20038;-78
2022/10/11 11:44:49;;;;;;;;;;;;;;;;;;5009437;28;20528;-78
2022/10/11 11:47:16;;;;;;;4.35;1.10;;;;;;;;;;5006735;28;19914;-78
2022/10/11 11:49:45;;;;;;;3.90;0.95;;;;;;;;;;4994008;28;20026;-78
2022/10/11 11:52:16;;;;;;;4.80;1.65;;;;;;;;;;4999773;28;20042;-78
2022/10/11 11:55:01;;;;;;;4.30;1.30;;;;;;;;;;5016840;28;20037;-78
2022/10/11 11:57:33;;;;;;;5.85;1.23;;;;;;;;;;5022236;28;20440;-78
2022/10/11 12:00:03;;;;;;;3.72;1.30;;;;;;;;;;5024124;28;20132;-77
2022/10/11 12:02:43;;;;;;;4.70;1.92;;;;;;;;;;5020313;28;20036;-78
2022/10/11 12:05:10;;;;;;;8.45;2.22;;;;;;;;;;5021112;28;20496;-78
2022/10/11 12:07:55;;;;;;;5.32;1.48;;;;;;;;;;5026497;28;20037;-78
2022/10/11 12:10:26;;;;;;;6.00;2.03;;;;;;;;;;5025196;28;20045;-78
2022/10/11 12:13:05;;;;;;;5.28;1.38;;;;;;;;;;5029017;28;20124;-78
2022/10/11 12:15:31;;;;;;;5.45;1.85;;;;;;;;;;5019292;28;20029;-78
2022/10/11 12:18:02;;;;;;;6.35;1.25;;;;;;;;;;5013185;28;20387;-78
2022/10/11 12:20:30;;;;;;;4.38;1.23;;;;;;;;;;5026422;28;20968;-78
2022/10/11 12:23:16;;;;;;;4.72;1.45;;;;;;;;;;5017922;28;20048;-78
2022/10/11 12:25:43;;;;;;;8.38;1.70;;;;;;;;;;5023166;28;20372;-78
2022/10/11 12:28:27;;;;;;;4.22;1.27;;;;;;;;;;5024448;28;20176;-78
2022/10/11 12:31:02;;;;;;;5.75;1.95;;;;;;;;;;5023980;28;20037;-78
2022/10/11 12:33:31;;;;;;;5.43;1.30;;;;;;;;;;5018498;28;20038;-78
2022/10/11 12:35:57;;;;;;;5.40;1.65;;;;;;;;;;5024807;28;20030;-78
2022/10/11 12:38:25;;;;;;;5.00;1.60;;;;;;;;;;5026548;28;20296;-78
2022/10/11 12:40:53;;;;;;;5.97;1.40;;;;;;;;;;5023185;28;20061;-78
2022/10/11 12:43:19;;;;;;;8.80;2.00;;;;;;;;;;5019737;28;20034;-78
2022/10/11 12:45:46;;;;;;;6.47;1.63;;;;;;;;;;5027947;28;20025;-78
2022/10/11 12:48:31;;;;;;;6.32;1.63;;;;;;;;;;5025823;28;20037;-78
2022/10/11 12:51:16;;;;;;;6.40;1.52;;;;;;;;;;5019905;28;20052;-77
2022/10/11 12:53:52;;;;;;;10.68;2.70;;;;;;;;;;5023577;28;20099;-78
2022/10/11 12:56:24;;;;;;;8.05;2.25;;;;;;;;;;5004169;28;20748;-78
2022/10/11 12:59:00;;;;;;;6.32;2.15;;;;;;;;;;5011189;28;20354;-78
2022/10/11 13:01:28;;;;;;;8.02;2.58;;;;;;;;;;5008352;28;20033;-78
2022/10/11 13:03:57;;;;;;;8.68;3.10;;;;;;;;;;5010025;28;20033;-77
2022/10/11 13:06:24;;;;;;;10.80;2.47;;;;;;;;;;5016106;28;20443;-78
2022/10/11 13:09:01;;;;;;;8.50;3.03;;;;;;;;;;5010235;28;20377;-77
2022/10/11 13:11:30;;;;;;;10.77;2.88;;;;;;;;;;5007138;28;20045;-78
2022/10/11 13:13:57;;;;;;;7.25;2.65;;;;;;;;;;5004011;28;20079;-77
2022/10/11 13:16:25;;;;;;;6.88;2.35;;;;;;;;;;5004577;28;20026;-78
2022/10/11 13:18:54;;;;;;;10.30;2.15;;;;;;;;;;5011586;28;20034;-77
2022/10/11 13:21:27;;;;;;;5.47;2.00;;;;;;;;;;5004325;28;20548;-77
2022/10/11 13:24:04;;;;;;;5.20;1.67;;;;;;;;;;5005011;28;20034;-77
2022/10/11 13:26:30;;;;;;;7.95;1.90;;;;;;;;;;5002134;28;20033;-77
2022/10/11 13:28:57;;;;;;;8.40;2.00;;;;;;;;;;5003092;28;20037;-78
2022/10/11 13:31:23;;;;;;;6.38;1.98;;;;;;;;;;5015736;28;20446;-78
2022/10/11 13:33:53;;;;;;;3.95;1.73;;;;;;;;;;5003180;28;20048;-77
2022/10/11 13:36:19;;;;;;;6.68;1.83;;;;;;;;;;5007289;28;20565;-78
2022/10/11 13:38:56;;;;;;;7.00;1.98;;;;;;;;;;5010463;28;20033;-77
2022/10/11 13:41:22;;;;;;;7.95;1.77;;;;;;;;;;5015313;28;20026;-78
2022/10/11 13:43:48;;;;;;;8.02;1.83;;;;;;;;;;5008119;28;20050;-77
2022/10/11 13:46:18;;;;;;;9.57;2.35;;;;;;;;;;5003755;28;20060;-78
2022/10/11 13:48:44;;;;;;;5.72;2.00;;;;;;;;;;5010915;28;20030;-77
2022/10/11 13:51:17;;;;;;;11.68;2.22;;;;;;;;;;5005876;28;20034;-77
2022/10/11 13:53:57;;;;;;;7.65;2.35;;;;;;;;;;5014603;28;20128;-77
2022/10/11 13:56:23;;;;;;;8.80;2.13;;;;;;;;;;5018178;28;20109;-78
2022/10/11 13:58:49;;;;;;;7.53;2.25;;;;;;;;;;5024986;28;20034;-77
2022/10/11 14:01:20;;;;;;;7.72;2.20;;;;;;;;;;5020264;28;20080;-77
2022/10/11 14:03:48;;;;;;;8.25;2.55;;;;;;;;;;5025229;28;20036;-78
2022/10/11 14:06:14;;;;;;;10.60;2.60;;;;;;;;;;5030574;28;20643;-78
2022/10/11 14:08:49;;;;;;;12.80;2.88;;;;;;;;;;5026647;28;20112;-78
2022/10/11 14:11:15;;;;;;;6.50;1.90;;;;;;;;;;5028638;28;20383;-78
2022/10/11 14:13:42;;;;;;;7.25;2.10;;;;;;;;;;5022265;28;20033;-77
2022/10/11 14:16:17;;;;;;;7.82;2.28;;;;;;;;;;5030286;28;20439;-78
2022/10/11 14:18:59;;;;;;;9.50;2.28;;;;;;;;;;5026100;28;20040;-77
2022/10/11 14:21:26;;;;;;;17.10;2.97;;;;;;;;;;5029076;28;20100;-78
2022/10/11 14:23:53;;;;;;;9.02;2.55;;;;;;;;;;5027159;28;20321;-78
2022/10/11 14:26:20;;;;;;;10.65;2.70;;;;;;;;;;5020074;28;20708;-78
2022/10/11 14:28:53;;;;;;;10.18;2.50;;;;;;;;;;5026329;28;20481;-77
2022/10/11 14:31:19;;;;;;;8.82;2.85;;;;;;;;;;5025209;28;20033;-78
2022/10/11 14:33:45;;;;;;;9.35;2.22;;;;;;;;;;5029269;28;20503;-77
2022/10/11 14:36:11;;;;;;;7.15;1.95;;;;;;;;;;5016093;28;20045;-78
2022/10/11 14:38:37;;;;;;;6.50;2.53;;;;;;;;;;5028641;28;20332;-78
2022/10/11 14:41:03;;;;;;;13.70;3.95;;;;;;;;;;5026519;28;20029;-78
2022/10/11 14:43:29;;;;;;;10.30;2.50;;;;;;;;;;5018717;28;20030;-78
2022/10/11 14:45:55;;;;;;;9.55;2.17;;;;;;;;;;5029814;28;21044;-77
2022/10/11 14:48:21;;;;;;;9.48;2.40;;;;;;;;;;5028682;28;20029;-78
2022/10/11 14:50:50;;;;;;;9.65;2.75;;;;;;;;;;5027491;28;20049;-78
2022/10/11 14:53:16;;;;;;;15.32;2.92;;;;;;;;;;5017608;28;20116;-78